Time;durP1;ratioP1;P1;durP2;ratioP2;P2;SDS_P1;SDS_P2;PMS_P1;PMS_P2;Temp;Humidity;BMP_temperature;BMP_pressure;BME280_temperature;BME280_humidity;BME280_pressure;Samples;Min_cycle;Max_cycle;Signal;HPM_P1;HPM_P2
2021/04/02 00:01:59;;;;;;;0.80;0.80;;;5.10;99.90;;;;;;5058665;28;20214;-80
2021/04/02 00:04:26;;;;;;;0.50;0.50;;;5.00;99.90;;;;;;5057519;28;20231;-79
2021/04/02 00:06:52;;;;;;;0.50;0.40;;;5.00;99.90;;;;;;5057208;28;20202;-81
2021/04/02 00:09:18;;;;;;;0.60;0.57;;;5.10;99.90;;;;;;5058770;28;20205;-79
2021/04/02 00:11:44;;;;;;;2.25;2.15;;;5.10;99.90;;;;;;5058330;28;20200;-80
2021/04/02 00:14:11;;;;;;;0.50;0.50;;;5.10;99.90;;;;;;5058288;28;20225;-78
2021/04/02 00:16:37;;;;;;;0.50;0.40;;;5.00;99.90;;;;;;5051479;28;20204;-79
2021/04/02 00:19:04;;;;;;;0.50;0.50;;;5.00;99.90;;;;;;5052086;28;20215;-81
2021/04/02 00:21:31;;;;;;;0.50;0.40;;;5.00;99.90;;;;;;5055800;28;20272;-77
2021/04/02 00:23:58;;;;;;;0.75;0.75;;;4.90;99.90;;;;;;5058547;28;20265;-80
2021/04/02 00:26:25;;;;;;;0.50;0.50;;;4.90;99.90;;;;;;5057818;28;20612;-81
2021/04/02 00:28:52;;;;;;;0.50;0.40;;;4.90;99.90;;;;;;5057590;28;20198;-80
2021/04/02 00:31:18;;;;;;;0.50;0.40;;;4.80;99.90;;;;;;5058398;28;20219;-80
2021/04/02 00:33:45;;;;;;;0.50;0.40;;;4.80;99.90;;;;;;5057830;28;20271;-80
2021/04/02 00:36:11;;;;;;;0.50;0.40;;;4.80;99.90;;;;;;5056487;28;20202;-82
2021/04/02 00:38:38;;;;;;;1.77;1.15;;;4.80;99.90;;;;;;5058042;28;20203;-81
2021/04/02 00:41:09;;;;;;;0.50;0.40;;;4.70;99.90;;;;;;5057729;28;20204;-80
2021/04/02 00:43:37;;;;;;;0.50;0.40;;;4.70;99.90;;;;;;5058182;28;20227;-80
2021/04/02 00:46:04;;;;;;;0.50;0.40;;;4.60;99.90;;;;;;5058811;28;20238;-80
2021/04/02 00:48:31;;;;;;;0.50;0.40;;;4.70;99.90;;;;;;5046541;28;20286;-81
2021/04/02 00:51:00;;;;;;;0.50;0.40;;;4.60;99.90;;;;;;5057990;28;20656;-80
2021/04/02 00:53:28;;;;;;;0.50;0.40;;;4.60;99.90;;;;;;5057289;28;20219;-81
2021/04/02 00:55:56;;;;;;;0.50;0.40;;;4.60;99.90;;;;;;5056414;28;20212;-80
2021/04/02 00:58:24;;;;;;;0.50;0.40;;;4.60;99.90;;;;;;5056856;28;20196;-80
2021/04/02 01:00:50;;;;;;;0.50;0.40;;;4.50;99.90;;;;;;5057246;28;20194;-81
2021/04/02 01:03:17;;;;;;;0.50;0.40;;;4.50;99.90;;;;;;5056644;28;20285;-81
2021/04/02 01:05:45;;;;;;;0.50;0.40;;;4.50;99.90;;;;;;5057369;28;20196;-82
2021/04/02 01:08:13;;;;;;;0.50;0.40;;;4.50;99.90;;;;;;5056554;28;20232;-80
2021/04/02 01:10:41;;;;;;;0.50;0.40;;;4.50;99.90;;;;;;5057929;28;20199;-80
2021/04/02 01:13:10;;;;;;;0.50;0.40;;;4.50;99.90;;;;;;5057478;28;20674;-80
2021/04/02 01:15:40;;;;;;;0.50;0.50;;;4.40;99.90;;;;;;5056754;28;20207;-80
2021/04/02 01:18:12;;;;;;;0.50;0.40;;;4.40;99.90;;;;;;5026908;28;20682;-80
2021/04/02 01:20:40;;;;;;;0.50;0.40;;;4.40;99.90;;;;;;5055450;28;20599;-78
2021/04/02 01:23:10;;;;;;;1.17;1.02;;;4.40;99.90;;;;;;5056288;28;20226;-79
2021/04/02 01:25:50;;;;;;;0.50;0.40;;;4.30;99.90;;;;;;5057002;28;20186;-79
2021/04/02 01:28:48;;;;;;;0.50;0.40;;;4.30;99.90;;;;;;5057262;28;20218;-79
2021/04/02 01:31:15;;;;;;;0.50;0.40;;;4.20;99.90;;;;;;5056471;28;20195;-80
2021/04/02 01:33:42;;;;;;;0.50;0.50;;;4.10;99.90;;;;;;5056310;28;20210;-80
2021/04/02 01:36:11;;;;;;;0.50;0.40;;;4.10;99.90;;;;;;5055689;28;20203;-80
2021/04/02 01:38:39;;;;;;;0.50;0.40;;;4.00;99.90;;;;;;5056314;28;20206;-81
2021/04/02 01:41:09;;;;;;;0.50;0.40;;;4.00;99.90;;;;;;5056913;28;20209;-79
2021/04/02 01:43:38;;;;;;;0.50;0.40;;;4.00;99.90;;;;;;5056116;28;20219;-80
2021/04/02 01:46:07;;;;;;;0.50;0.40;;;4.00;99.90;;;;;;5056385;28;20202;-80
2021/04/02 01:48:34;;;;;;;0.50;0.40;;;4.00;99.90;;;;;;5043724;28;20203;-79
2021/04/02 01:51:02;;;;;;;0.50;0.40;;;3.90;99.90;;;;;;5056256;28;20252;-79
2021/04/02 01:53:32;;;;;;;0.50;0.40;;;3.90;99.90;;;;;;5056469;28;20214;-79
2021/04/02 01:55:59;;;;;;;0.50;0.40;;;3.90;99.90;;;;;;5059149;28;20195;-81
2021/04/02 01:58:26;;;;;;;0.50;0.40;;;3.90;99.90;;;;;;5058644;28;20198;-80
2021/04/02 02:00:56;;;;;;;0.50;0.40;;;3.90;99.90;;;;;;5058424;28;20367;-79
2021/04/02 02:03:27;;;;;;;0.50;0.40;;;3.90;99.90;;;;;;5059202;28;20218;-79
2021/04/02 02:05:55;;;;;;;0.50;0.40;;;3.90;99.90;;;;;;5056831;28;20224;-80
2021/04/02 02:08:23;;;;;;;0.98;0.95;;;4.00;99.90;;;;;;5058236;28;20209;-80
2021/04/02 02:10:55;;;;;;;0.50;0.40;;;3.90;99.90;;;;;;5056350;28;20196;-80
2021/04/02 02:13:23;;;;;;;0.50;0.40;;;3.80;99.90;;;;;;5056046;28;20657;-81
2021/04/02 02:15:52;;;;;;;0.50;0.40;;;3.80;99.90;;;;;;5054415;28;20229;-79
2021/04/02 02:18:23;;;;;;;6.50;3.25;;;3.80;99.90;;;;;;5043105;28;20260;-80
2021/04/02 02:20:52;;;;;;;0.50;0.43;;;3.80;99.90;;;;;;5054028;28;20187;-80
2021/04/02 02:23:18;;;;;;;0.50;0.40;;;3.80;99.90;;;;;;5056164;28;20221;-80
2021/04/02 02:25:45;;;;;;;0.50;0.40;;;3.80;99.90;;;;;;5055926;28;20195;-77
2021/04/02 02:28:12;;;;;;;0.50;0.40;;;3.80;99.90;;;;;;5058531;28;20228;-81
2021/04/02 02:30:38;;;;;;;0.50;0.40;;;3.80;99.90;;;;;;5060909;28;20297;-80
2021/04/02 02:33:04;;;;;;;0.50;0.50;;;3.90;99.90;;;;;;5060354;28;20191;-80
2021/04/02 02:35:31;;;;;;;0.50;0.40;;;4.00;99.90;;;;;;5059613;28;20264;-80
2021/04/02 02:38:01;;;;;;;0.50;0.40;;;4.10;99.90;;;;;;5058732;28;20664;-79
2021/04/02 02:40:32;;;;;;;0.50;0.40;;;4.10;99.90;;;;;;5060470;28;20199;-79
2021/04/02 02:43:00;;;;;;;0.50;0.40;;;4.10;99.90;;;;;;5059683;28;20634;-80
2021/04/02 02:45:29;;;;;;;0.50;0.40;;;4.20;99.90;;;;;;5059620;28;20219;-80
2021/04/02 02:47:55;;;;;;;0.50;0.40;;;4.10;99.90;;;;;;5046353;28;20209;-79
2021/04/02 02:50:25;;;;;;;0.50;0.43;;;4.10;99.90;;;;;;5058470;28;20192;-78
2021/04/02 02:52:52;;;;;;;0.50;0.40;;;4.10;99.90;;;;;;5059577;28;20200;-79
2021/04/02 02:55:22;;;;;;;0.50;0.40;;;4.20;99.90;;;;;;5059669;28;20218;-79
2021/04/02 02:57:51;;;;;;;0.50;0.40;;;4.20;99.90;;;;;;5059051;28;20203;-80
2021/04/02 03:00:20;;;;;;;0.50;0.40;;;4.30;99.90;;;;;;5058759;28;20594;-79
2021/04/02 03:02:49;;;;;;;0.50;0.40;;;4.30;99.90;;;;;;5060091;28;20215;-80
2021/04/02 03:05:16;;;;;;;0.50;0.40;;;4.20;99.90;;;;;;5059416;28;20289;-81
2021/04/02 03:07:45;;;;;;;0.60;0.40;;;4.10;99.90;;;;;;5058811;28;20194;-78
2021/04/02 03:10:12;;;;;;;0.50;0.40;;;4.10;99.90;;;;;;5059113;28;20221;-80
2021/04/02 03:12:41;;;;;;;0.50;0.40;;;4.10;99.90;;;;;;5059385;28;20188;-79
2021/04/02 03:15:08;;;;;;;0.50;0.40;;;4.00;99.90;;;;;;5059627;28;20229;-79
2021/04/02 03:17:35;;;;;;;0.50;0.45;;;3.90;99.90;;;;;;5045971;28;20578;-80
2021/04/02 03:20:04;;;;;;;0.50;0.40;;;4.00;99.90;;;;;;5057867;28;20190;-80
2021/04/02 03:22:32;;;;;;;0.50;0.40;;;4.00;99.90;;;;;;5059688;28;20217;-80
2021/04/02 03:25:00;;;;;;;0.50;0.40;;;4.00;99.90;;;;;;5059797;28;20222;-80
2021/04/02 03:27:27;;;;;;;0.50;0.40;;;3.90;99.90;;;;;;5060166;28;20225;-80
2021/04/02 03:29:55;;;;;;;0.50;0.40;;;4.00;99.90;;;;;;5060148;28;20218;-79
2021/04/02 03:32:25;;;;;;;0.50;0.40;;;4.00;99.90;;;;;;5060046;28;20226;-80
2021/04/02 03:34:54;;;;;;;0.50;0.40;;;3.90;99.90;;;;;;5059924;28;20211;-79
2021/04/02 03:37:21;;;;;;;0.50;0.40;;;3.90;99.90;;;;;;5058263;28;20202;-79
2021/04/02 03:39:49;;;;;;;0.50;0.40;;;3.80;99.90;;;;;;5060352;28;20201;-80
2021/04/02 03:42:16;;;;;;;0.50;0.40;;;3.80;99.90;;;;;;5059698;28;20707;-79
2021/04/02 03:44:45;;;;;;;0.50;0.40;;;3.70;99.90;;;;;;5059595;28;20237;-79
2021/04/02 03:47:15;;;;;;;0.50;0.40;;;3.60;99.90;;;;;;5046428;28;20200;-80
2021/04/02 03:49:43;;;;;;;0.50;0.40;;;3.50;99.90;;;;;;5059966;28;20182;-79
2021/04/02 03:52:13;;;;;;;0.50;0.40;;;3.60;99.90;;;;;;5058991;28;20199;-78
2021/04/02 03:54:40;;;;;;;0.50;0.40;;;3.60;99.90;;;;;;5059356;28;20222;-79
2021/04/02 03:57:08;;;;;;;0.50;0.40;;;3.60;99.90;;;;;;5058332;28;20199;-80
2021/04/02 03:59:36;;;;;;;0.50;0.40;;;3.60;99.90;;;;;;5058935;28;20195;-80
2021/04/02 04:02:04;;;;;;;0.50;0.40;;;3.60;99.90;;;;;;5058743;28;20234;-79
2021/04/02 04:04:32;;;;;;;0.50;0.40;;;3.80;99.90;;;;;;5057911;28;20218;-79
2021/04/02 04:07:01;;;;;;;0.50;0.40;;;3.90;99.90;;;;;;5057578;28;20210;-78
2021/04/02 04:09:28;;;;;;;0.60;0.60;;;3.90;99.90;;;;;;5058788;28;20281;-81
2021/04/02 04:11:56;;;;;;;0.60;0.60;;;3.90;99.90;;;;;;5059439;28;20203;-79
2021/04/02 04:14:26;;;;;;;0.50;0.40;;;4.00;99.90;;;;;;5059029;28;20234;-80
2021/04/02 04:16:54;;;;;;;0.50;0.40;;;4.10;99.90;;;;;;5052391;28;20226;-80
2021/04/02 04:19:22;;;;;;;0.60;0.60;;;4.10;99.90;;;;;;5060433;28;20187;-79
2021/04/02 04:21:52;;;;;;;0.50;0.40;;;4.20;99.90;;;;;;5057314;28;20202;-79
2021/04/02 04:24:21;;;;;;;0.60;0.40;;;4.20;99.90;;;;;;5058020;28;20222;-79
2021/04/02 04:26:49;;;;;;;0.50;0.40;;;4.20;99.90;;;;;;5056847;28;20199;-80
2021/04/02 04:29:18;;;;;;;1.30;0.95;;;4.20;99.90;;;;;;5057525;28;20678;-80
2021/04/02 04:31:47;;;;;;;0.50;0.40;;;4.30;99.90;;;;;;5057514;28;20549;-81
2021/04/02 04:34:15;;;;;;;20.73;2.80;;;4.40;99.90;;;;;;5059807;28;20217;-78
2021/04/02 04:36:45;;;;;;;0.50;0.40;;;4.30;99.90;;;;;;5069340;28;20204;-79
2021/04/02 04:39:13;;;;;;;0.50;0.40;;;4.40;99.90;;;;;;5069862;28;20215;-79
2021/04/02 04:41:42;;;;;;;0.50;0.40;;;4.50;99.90;;;;;;5069568;28;20278;-79
2021/04/02 04:44:09;;;;;;;0.50;0.47;;;4.50;99.90;;;;;;5070077;28;20223;-81
2021/04/02 04:46:36;;;;;;;0.50;0.40;;;4.60;99.90;;;;;;5062408;28;20198;-78
2021/04/02 04:49:03;;;;;;;0.50;0.40;;;4.70;99.90;;;;;;5064284;28;20553;-81
2021/04/02 04:51:32;;;;;;;0.50;0.50;;;4.70;99.90;;;;;;5071165;28;20198;-80
2021/04/02 04:54:00;;;;;;;0.50;0.40;;;4.80;99.90;;;;;;5062194;28;20211;-80
2021/04/02 04:56:30;;;;;;;1.67;1.65;;;4.90;99.90;;;;;;5056587;28;20667;-80
2021/04/02 04:59:00;;;;;;;0.50;0.40;;;4.90;99.90;;;;;;5058587;28;20212;-78
2021/04/02 05:01:28;;;;;;;2.35;1.95;;;4.80;99.90;;;;;;5059526;28;20198;-78
2021/04/02 05:03:56;;;;;;;0.60;0.60;;;4.80;99.90;;;;;;5059892;28;20231;-79
2021/04/02 05:06:23;;;;;;;4.35;1.67;;;4.90;99.90;;;;;;5057385;28;20207;-79
2021/04/02 05:08:52;;;;;;;0.50;0.40;;;5.00;99.90;;;;;;5056419;28;20196;-78
2021/04/02 05:11:22;;;;;;;0.50;0.50;;;4.90;99.90;;;;;;5055443;28;20200;-77
2021/04/02 05:13:51;;;;;;;0.50;0.40;;;4.80;99.90;;;;;;5054503;28;20219;-77
2021/04/02 05:16:20;;;;;;;0.50;0.40;;;4.90;99.90;;;;;;5067362;22;20224;-77
2021/04/02 05:18:47;;;;;;;0.50;0.50;;;4.90;99.90;;;;;;5071838;28;20559;-79
2021/04/02 05:21:14;;;;;;;0.50;0.40;;;5.00;99.90;;;;;;5077121;28;20202;-79
2021/04/02 05:23:40;;;;;;;0.50;0.40;;;4.90;99.90;;;;;;5078519;28;20235;-78
2021/04/02 05:26:10;;;;;;;0.60;0.40;;;4.90;99.90;;;;;;5063996;28;20230;-79
2021/04/02 05:28:37;;;;;;;0.60;0.60;;;4.80;99.90;;;;;;5059152;28;20202;-78
2021/04/02 05:31:04;;;;;;;3.25;2.95;;;4.70;99.90;;;;;;5058898;28;20203;-79
2021/04/02 05:33:30;;;;;;;1.13;1.02;;;4.70;99.90;;;;;;5058583;28;20748;-80
2021/04/02 05:35:56;;;;;;;0.50;0.40;;;4.70;99.90;;;;;;5058695;28;20630;-78
2021/04/02 05:38:23;;;;;;;0.70;0.70;;;4.70;99.90;;;;;;5058596;28;20239;-80
2021/04/02 05:40:49;;;;;;;0.57;0.55;;;4.80;99.90;;;;;;5059826;28;20200;-79
2021/04/02 05:43:24;;;;;;;0.55;0.40;;;4.90;99.90;;;;;;5058619;28;20226;-79
2021/04/02 05:45:54;;;;;;;1.65;1.25;;;4.80;99.90;;;;;;5054277;28;20218;-77
2021/04/02 05:48:23;;;;;;;0.50;0.40;;;4.70;99.90;;;;;;5051097;28;20179;-79
2021/04/02 05:50:54;;;;;;;0.50;0.40;;;4.80;99.90;;;;;;5058320;28;20217;-79
2021/04/02 05:53:21;;;;;;;0.50;0.40;;;4.90;99.90;;;;;;5058952;28;20228;-79
2021/04/02 05:55:50;;;;;;;0.50;0.40;;;4.90;99.90;;;;;;5058351;28;20226;-76
2021/04/02 05:58:17;;;;;;;0.55;0.50;;;5.00;99.90;;;;;;5041435;28;20206;-79
2021/04/02 06:00:43;;;;;;;3.63;2.40;;;5.10;99.90;;;;;;5058828;28;20216;-80
2021/04/02 06:03:10;;;;;;;0.50;0.40;;;5.10;99.90;;;;;;5060069;28;20217;-79
2021/04/02 06:05:37;;;;;;;1.50;1.30;;;5.10;99.90;;;;;;5057953;28;20230;-79
2021/04/02 06:08:04;;;;;;;2.38;0.85;;;5.10;99.90;;;;;;5057061;28;20197;-79
2021/04/02 06:10:31;;;;;;;0.50;0.50;;;5.10;99.90;;;;;;5058675;28;20200;-80
2021/04/02 06:12:58;;;;;;;0.50;0.40;;;5.10;99.90;;;;;;5058655;28;20254;-79
2021/04/02 06:15:24;;;;;;;2.35;2.15;;;5.20;99.90;;;;;;5054863;28;20226;-79
2021/04/02 06:18:05;;;;;;;0.52;0.50;;;5.20;99.90;;;;;;5049375;28;20715;-79
2021/04/02 06:20:35;;;;;;;0.50;0.40;;;5.20;99.90;;;;;;5057553;28;20181;-79
2021/04/02 06:23:13;;;;;;;0.88;0.88;;;5.30;99.90;;;;;;5058541;28;20302;-79
2021/04/02 06:25:46;;;;;;;0.50;0.50;;;5.30;99.90;;;;;;5040985;28;20764;-78
2021/04/02 06:28:14;;;;;;;1.60;1.10;;;5.40;99.90;;;;;;5058286;28;20694;-80
2021/04/02 06:30:42;;;;;;;0.50;0.40;;;5.20;99.90;;;;;;5059114;28;20207;-78
2021/04/02 06:33:10;;;;;;;2.15;1.95;;;5.30;99.90;;;;;;5059568;28;20246;-79
2021/04/02 06:35:37;;;;;;;0.50;0.40;;;5.30;99.90;;;;;;5059253;28;20220;-79
2021/04/02 06:38:04;;;;;;;0.50;0.40;;;5.30;99.90;;;;;;5057408;28;20197;-78
2021/04/02 06:40:31;;;;;;;1.98;1.88;;;5.40;99.90;;;;;;5058659;28;20564;-79
2021/04/02 06:42:59;;;;;;;5.53;2.25;;;5.50;99.90;;;;;;5058644;28;20218;-80
2021/04/02 06:45:25;;;;;;;0.50;0.40;;;5.50;99.90;;;;;;5055740;28;20219;-76
2021/04/02 06:47:52;;;;;;;0.80;0.70;;;5.50;99.90;;;;;;5050095;28;20191;-79
2021/04/02 06:50:20;;;;;;;0.50;0.40;;;5.50;99.90;;;;;;5059245;28;20192;-80
2021/04/02 06:52:49;;;;;;;5.90;0.95;;;5.60;99.90;;;;;;5058689;28;20656;-79
2021/04/02 06:55:16;;;;;;;1.73;1.63;;;5.50;99.90;;;;;;5058679;28;20630;-79
2021/04/02 06:57:47;;;;;;;0.50;0.40;;;5.60;99.90;;;;;;5057082;28;20227;-79
2021/04/02 07:00:18;;;;;;;0.50;0.40;;;5.70;99.90;;;;;;5056502;28;20213;-79
2021/04/02 07:02:46;;;;;;;0.50;0.40;;;5.70;99.90;;;;;;5058320;28;20214;-80
2021/04/02 07:05:16;;;;;;;0.50;0.40;;;5.50;99.90;;;;;;5057976;28;20219;-80
2021/04/02 07:07:45;;;;;;;0.50;0.40;;;5.70;99.90;;;;;;5057677;28;20255;-78
2021/04/02 07:10:12;;;;;;;0.75;0.75;;;5.60;99.90;;;;;;5057143;28;20307;-80
2021/04/02 07:12:45;;;;;;;1.70;1.48;;;5.60;99.90;;;;;;5058199;28;20220;-77
2021/04/02 07:15:13;;;;;;;1.45;1.33;;;5.70;99.90;;;;;;5058157;28;20327;-80
2021/04/02 07:17:39;;;;;;;0.50;0.40;;;5.70;99.90;;;;;;5052659;28;20183;-79
2021/04/02 07:20:07;;;;;;;0.90;0.90;;;5.70;99.90;;;;;;5060821;28;20206;-79
2021/04/02 07:22:33;;;;;;;0.50;0.40;;;5.80;99.90;;;;;;5068047;28;20211;-79
2021/04/02 07:25:00;;;;;;;0.50;0.40;;;5.80;99.90;;;;;;5062463;28;20692;-78
2021/04/02 07:27:27;;;;;;;0.50;0.40;;;5.90;99.90;;;;;;5060314;28;20720;-79
2021/04/02 07:29:55;;;;;;;0.50;0.40;;;5.80;99.90;;;;;;5061399;28;20201;-80
2021/04/02 07:32:22;;;;;;;0.90;0.60;;;5.90;99.90;;;;;;5060722;28;20195;-77
2021/04/02 07:34:50;;;;;;;0.50;0.50;;;5.90;99.90;;;;;;5061230;28;20223;-79
2021/04/02 07:37:17;;;;;;;1.77;1.67;;;5.90;99.90;;;;;;5060686;28;20194;-79
2021/04/02 07:39:47;;;;;;;0.50;0.50;;;6.00;99.90;;;;;;5062273;28;20198;-79
2021/04/02 07:42:13;;;;;;;1.77;1.48;;;6.00;99.90;;;;;;5061602;28;20217;-79
2021/04/02 07:44:44;;;;;;;8.32;3.72;;;6.10;99.90;;;;;;5061265;28;20255;-79
2021/04/02 07:47:13;;;;;;;0.50;0.40;;;6.10;99.90;;;;;;5049360;28;20661;-79
2021/04/02 07:49:41;;;;;;;1.45;1.35;;;6.10;99.90;;;;;;5061221;28;20255;-79
2021/04/02 07:52:08;;;;;;;0.50;0.40;;;6.20;99.90;;;;;;5063687;28;20268;-79
2021/04/02 07:54:36;;;;;;;0.90;0.90;;;6.30;99.90;;;;;;5065751;28;20309;-78
2021/04/02 07:57:14;;;;;;;0.50;0.40;;;6.40;99.90;;;;;;5060537;28;20288;-80
2021/04/02 07:59:44;;;;;;;0.50;0.40;;;6.50;99.90;;;;;;5060595;28;20202;-79
2021/04/02 08:02:14;;;;;;;0.70;0.63;;;6.50;99.90;;;;;;5061171;28;20186;-79
2021/04/02 08:04:42;;;;;;;0.50;0.40;;;6.60;99.90;;;;;;5061466;28;20225;-79
2021/04/02 08:07:14;;;;;;;0.60;0.60;;;6.70;99.90;;;;;;5059883;28;20694;-80
2021/04/02 08:09:42;;;;;;;0.93;0.88;;;6.70;99.90;;;;;;5061050;28;20198;-78
2021/04/02 08:12:10;;;;;;;1.05;0.95;;;6.60;99.90;;;;;;5061430;28;20196;-79
2021/04/02 08:14:37;;;;;;;0.50;0.40;;;6.70;99.90;;;;;;5061157;28;20198;-79
2021/04/02 08:17:08;;;;;;;1.95;0.98;;;6.70;99.90;;;;;;5048913;28;20199;-79
2021/04/02 08:19:37;;;;;;;8.52;2.83;;;6.80;99.90;;;;;;5059709;28;20183;-79
2021/04/02 08:22:06;;;;;;;2.03;1.65;;;6.70;99.90;;;;;;5061504;28;20210;-79
2021/04/02 08:24:34;;;;;;;0.50;0.40;;;6.70;99.90;;;;;;5060585;28;20206;-80
2021/04/02 08:27:01;;;;;;;0.60;0.50;;;6.70;99.90;;;;;;5062077;28;20206;-80
2021/04/02 08:29:29;;;;;;;11.10;6.95;;;6.70;99.90;;;;;;5062571;28;20205;-80
2021/04/02 08:31:57;;;;;;;0.50;0.40;;;6.70;99.90;;;;;;5062328;28;20201;-80
2021/04/02 08:34:26;;;;;;;0.50;0.40;;;6.80;99.90;;;;;;5062295;28;20564;-80
2021/04/02 08:36:57;;;;;;;1.23;1.23;;;6.70;99.90;;;;;;5059843;28;20285;-80
2021/04/02 08:39:24;;;;;;;1.40;1.30;;;6.90;99.90;;;;;;5061413;28;20187;-80
2021/04/02 08:41:55;;;;;;;0.50;0.40;;;7.00;99.90;;;;;;5061845;28;20244;-79
2021/04/02 08:44:31;;;;;;;0.50;0.40;;;6.90;99.90;;;;;;5065201;28;20602;-79
2021/04/02 08:46:59;;;;;;;0.50;0.40;;;6.90;99.90;;;;;;5048756;28;20275;-80
2021/04/02 08:49:25;;;;;;;0.50;0.50;;;7.00;99.90;;;;;;5021561;28;20216;-80
2021/04/02 08:51:54;;;;;;;1.17;1.08;;;7.20;99.90;;;;;;5021340;28;20214;-80
2021/04/02 08:54:21;;;;;;;0.50;0.40;;;7.30;99.90;;;;;;5021680;28;20567;-79
2021/04/02 08:56:49;;;;;;;0.50;0.40;;;7.20;99.90;;;;;;5020602;28;20220;-79
2021/04/02 08:59:17;;;;;;;0.50;0.40;;;7.30;99.90;;;;;;5021859;28;20211;-80
2021/04/02 09:01:45;;;;;;;1.70;0.85;;;7.40;99.90;;;;;;5020020;28;20196;-79
2021/04/02 09:04:13;;;;;;;0.50;0.40;;;7.40;99.90;;;;;;5020641;28;20238;-79
2021/04/02 09:06:41;;;;;;;0.50;0.40;;;7.50;99.90;;;;;;5019430;28;20219;-80
2021/04/02 09:09:19;;;;;;;3.20;0.93;;;7.50;99.90;;;;;;5020649;28;20196;-80
2021/04/02 09:11:47;;;;;;;5.28;3.53;;;7.60;99.90;;;;;;5020163;28;20271;-78
2021/04/02 09:14:14;;;;;;;1.52;1.42;;;7.50;99.90;;;;;;5020420;28;20188;-80
2021/04/02 09:16:42;;;;;;;0.50;0.40;;;7.50;99.90;;;;;;5044116;28;20227;-80
2021/04/02 09:19:09;;;;;;;0.50;0.40;;;7.60;99.90;;;;;;5058582;28;20199;-79
2021/04/02 09:21:36;;;;;;;3.15;0.93;;;7.70;99.90;;;;;;5058237;28;20201;-78
2021/04/02 09:24:04;;;;;;;2.25;2.05;;;7.80;99.90;;;;;;5060163;28;20218;-79
2021/04/02 09:26:36;;;;;;;1.63;1.48;;;7.90;99.90;;;;;;5059058;28;20223;-79
2021/04/02 09:29:03;;;;;;;0.60;0.55;;;8.00;99.90;;;;;;5059713;28;20195;-79
2021/04/02 09:31:32;;;;;;;1.95;1.40;;;8.10;99.90;;;;;;5058518;28;20206;-78
2021/04/02 09:34:00;;;;;;;2.15;0.95;;;8.20;99.90;;;;;;5059505;28;20672;-78
2021/04/02 09:36:27;;;;;;;0.70;0.70;;;8.20;99.90;;;;;;5058253;28;20219;-79
2021/04/02 09:39:08;;;;;;;1.63;1.63;;;8.30;99.90;;;;;;5059555;28;20202;-79
2021/04/02 09:41:36;;;;;;;0.50;0.40;;;8.30;99.90;;;;;;5059692;28;20198;-79
2021/04/02 09:44:08;;;;;;;0.50;0.40;;;8.30;99.90;;;;;;5059601;28;20584;-79
2021/04/02 09:46:36;;;;;;;1.70;1.60;;;8.30;99.90;;;;;;5049237;28;20211;-81
2021/04/02 09:49:05;;;;;;;0.50;0.40;;;8.30;99.90;;;;;;5056418;28;20206;-79
2021/04/02 09:51:33;;;;;;;0.52;0.52;;;8.40;99.90;;;;;;5059654;28;20677;-78
2021/04/02 09:54:00;;;;;;;0.50;0.40;;;8.40;99.90;;;;;;5059442;28;20728;-80
2021/04/02 09:56:26;;;;;;;0.85;0.85;;;8.50;99.90;;;;;;5058649;28;20214;-78
2021/04/02 09:58:54;;;;;;;0.50;0.40;;;8.50;99.90;;;;;;5056968;28;20195;-79
2021/04/02 10:01:20;;;;;;;0.80;0.80;;;8.40;99.90;;;;;;5057250;28;20236;-79
2021/04/02 10:03:47;;;;;;;0.50;0.40;;;8.20;99.90;;;;;;5059672;28;20274;-79
2021/04/02 10:06:13;;;;;;;0.90;0.40;;;8.10;99.90;;;;;;5060254;28;20215;-79
2021/04/02 10:08:39;;;;;;;0.50;0.40;;;8.20;99.90;;;;;;5059114;28;20209;-79
2021/04/02 10:11:06;;;;;;;0.50;0.40;;;8.30;99.90;;;;;;5058546;28;20217;-79
2021/04/02 10:13:32;;;;;;;0.50;0.50;;;8.40;99.90;;;;;;5058248;28;20205;-78
2021/04/02 10:15:59;;;;;;;0.50;0.40;;;8.60;99.90;;;;;;5046466;28;20231;-79
2021/04/02 10:18:27;;;;;;;3.35;2.00;;;8.70;99.90;;;;;;5043542;28;20190;-79
2021/04/02 10:20:54;;;;;;;0.73;0.70;;;8.70;99.90;;;;;;5056008;28;20615;-79
2021/04/02 10:23:21;;;;;;;0.95;0.95;;;8.50;99.90;;;;;;5058386;28;20219;-77
2021/04/02 10:25:47;;;;;;;4.50;1.45;;;8.50;99.90;;;;;;5058087;28;20214;-78
2021/04/02 10:28:13;;;;;;;4.05;3.65;;;8.40;99.90;;;;;;5057658;28;20285;-79
2021/04/02 10:30:40;;;;;;;1.13;1.02;;;8.40;99.90;;;;;;5058941;28;20203;-79
2021/04/02 10:33:07;;;;;;;0.60;0.57;;;8.30;99.90;;;;;;5059879;28;20191;-79
2021/04/02 10:35:35;;;;;;;0.85;0.85;;;8.40;99.90;;;;;;5059190;28;20229;-81
2021/04/02 10:38:01;;;;;;;3.70;1.25;;;8.50;99.90;;;;;;5058621;28;20201;-80
2021/04/02 10:40:29;;;;;;;0.50;0.40;;;8.50;99.90;;;;;;5058770;28;20206;-79
2021/04/02 10:42:56;;;;;;;0.50;0.40;;;8.50;99.90;;;;;;5059104;28;20206;-80
2021/04/02 10:45:23;;;;;;;1.50;1.23;;;8.60;99.90;;;;;;5056224;28;20343;-79
2021/04/02 10:47:49;;;;;;;0.85;0.85;;;8.60;99.90;;;;;;5050373;28;20217;-79
2021/04/02 10:50:16;;;;;;;0.50;0.50;;;8.20;99.90;;;;;;5063436;28;20194;-79
2021/04/02 10:52:43;;;;;;;0.50;0.40;;;8.30;99.90;;;;;;5064333;28;20198;-77
2021/04/02 10:55:10;;;;;;;0.50;0.40;;;8.40;99.90;;;;;;5063603;28;20284;-79
2021/04/02 10:57:37;;;;;;;0.55;0.52;;;8.40;99.90;;;;;;5062266;28;20672;-79
2021/04/02 11:00:05;;;;;;;0.82;0.77;;;8.50;99.90;;;;;;5064168;28;20195;-80
2021/04/02 11:02:31;;;;;;;0.50;0.40;;;8.60;99.90;;;;;;5063813;28;20293;-79
2021/04/02 11:04:58;;;;;;;2.08;0.85;;;8.60;99.90;;;;;;5063808;28;20217;-79
2021/04/02 11:07:25;;;;;;;1.15;1.15;;;8.60;99.90;;;;;;5062635;28;20202;-79
2021/04/02 11:09:52;;;;;;;0.68;0.68;;;8.70;99.90;;;;;;5063660;28;20219;-78
2021/04/02 11:12:18;;;;;;;0.50;0.50;;;8.50;99.90;;;;;;5063133;28;20194;-78
2021/04/02 11:14:49;;;;;;;0.50;0.40;;;8.50;99.90;;;;;;5062201;28;20187;-79
2021/04/02 11:17:15;;;;;;;1.40;0.95;;;8.40;99.90;;;;;;5056542;22;20223;-83
2021/04/02 11:19:41;;;;;;;0.50;0.40;;;8.50;99.90;;;;;;5034744;28;20321;-81
2021/04/02 11:22:07;;;;;;;0.50;0.40;;;8.70;99.90;;;;;;5040633;28;20199;-81
2021/04/02 11:24:34;;;;;;;0.95;0.75;;;8.70;99.90;;;;;;5041629;28;20215;-80
2021/04/02 11:27:01;;;;;;;0.50;0.40;;;8.80;99.90;;;;;;5040322;28;20223;-81
2021/04/02 11:29:27;;;;;;;2.00;1.90;;;8.80;99.90;;;;;;5040822;28;20196;-82
2021/04/02 11:31:53;;;;;;;0.77;0.77;;;8.80;99.90;;;;;;5037708;28;20226;-80
2021/04/02 11:34:20;;;;;;;0.50;0.40;;;9.00;99.90;;;;;;5052239;28;20191;-81
2021/04/02 11:36:46;;;;;;;0.50;0.40;;;8.90;99.90;;;;;;5057427;28;20206;-80
2021/04/02 11:39:12;;;;;;;0.50;0.40;;;9.00;99.90;;;;;;5060081;28;20191;-80
2021/04/02 11:41:39;;;;;;;0.50;0.40;;;9.10;99.90;;;;;;5061703;28;20195;-83
2021/04/02 11:44:06;;;;;;;0.50;0.40;;;9.20;99.90;;;;;;5059351;28;20221;-80
2021/04/02 11:46:33;;;;;;;0.50;0.40;;;9.40;99.90;;;;;;5058566;28;20191;-79
2021/04/02 11:49:00;;;;;;;0.50;0.40;;;9.40;99.90;;;;;;5060007;28;20203;-80
2021/04/02 11:51:26;;;;;;;0.50;0.40;;;9.20;99.90;;;;;;5059825;28;20205;-81
2021/04/02 11:53:53;;;;;;;0.50;0.40;;;9.30;99.90;;;;;;5060195;28;20191;-81
2021/04/02 11:56:19;;;;;;;0.50;0.40;;;9.30;99.90;;;;;;5060059;28;20657;-80
2021/04/02 11:58:46;;;;;;;0.50;0.40;;;9.10;99.90;;;;;;5060656;28;20215;-80
2021/04/02 12:01:12;;;;;;;0.50;0.40;;;9.20;99.90;;;;;;5057662;28;20192;-80
2021/04/02 12:03:39;;;;;;;0.68;0.65;;;9.20;99.90;;;;;;5048083;28;20208;-78
2021/04/02 12:06:05;;;;;;;1.30;0.88;;;9.50;99.90;;;;;;5039384;28;20211;-81
2021/04/02 12:08:31;;;;;;;0.50;0.40;;;9.50;99.90;;;;;;5040917;28;20215;-78
2021/04/02 12:10:57;;;;;;;0.50;0.40;;;9.90;99.90;;;;;;5040598;28;20244;-80
2021/04/02 12:13:24;;;;;;;0.50;0.40;;;10.10;99.90;;;;;;5039815;28;20189;-80
2021/04/02 12:15:52;;;;;;;0.50;0.40;;;10.50;99.90;;;;;;5039231;28;20210;-78
2021/04/02 12:18:18;;;;;;;0.50;0.40;;;10.90;99.90;;;;;;5039141;28;20270;-81
2021/04/02 12:20:44;;;;;;;0.50;0.40;;;11.00;99.90;;;;;;5040303;28;20231;-80
2021/04/02 12:23:11;;;;;;;0.50;0.40;;;11.10;99.90;;;;;;5039516;28;20242;-80
2021/04/02 12:25:37;;;;;;;0.93;0.93;;;11.10;99.90;;;;;;5037819;28;20211;-80
2021/04/02 12:28:04;;;;;;;1.02;0.60;;;10.90;99.90;;;;;;5039231;28;20223;-80
2021/04/02 12:30:30;;;;;;;1.20;1.10;;;10.80;99.90;;;;;;5039537;28;20695;-82
2021/04/02 12:32:57;;;;;;;0.65;0.65;;;10.50;99.90;;;;;;5047859;28;20206;-81
2021/04/02 12:35:24;;;;;;;1.38;1.27;;;10.90;99.90;;;;;;5051702;28;20618;-81
2021/04/02 12:37:50;;;;;;;0.50;0.40;;;11.60;99.90;;;;;;5056042;28;20279;-80
2021/04/02 12:40:20;;;;;;;0.50;0.40;;;13.20;99.90;;;;;;5060238;28;20203;-82
2021/04/02 12:42:47;;;;;;;0.50;0.40;;;13.70;99.90;;;;;;5057788;28;20296;-80
2021/04/02 12:45:15;;;;;;;0.50;0.40;;;14.50;99.90;;;;;;5058846;28;20445;-78
2021/04/02 12:47:42;;;;;;;0.50;0.40;;;14.60;99.90;;;;;;5057328;28;20215;-78
2021/04/02 12:50:11;;;;;;;0.50;0.40;;;14.20;99.90;;;;;;5058127;28;20213;-77
2021/04/02 12:52:39;;;;;;;2.15;0.50;;;12.90;99.90;;;;;;5058479;28;20210;-78
2021/04/02 12:55:08;;;;;;;0.50;0.50;;;12.80;99.90;;;;;;5058293;28;20190;-80
2021/04/02 12:57:34;;;;;;;0.50;0.40;;;12.40;99.90;;;;;;5059081;28;20241;-79
2021/04/02 13:00:01;;;;;;;0.50;0.40;;;13.00;99.90;;;;;;5059399;28;20205;-79